Time;durP1;ratioP1;P1;durP2;ratioP2;P2;SDS_P1;SDS_P2;PMS_P1;PMS_P2;Temp;Humidity;BMP_temperature;BMP_pressure;BME280_temperature;BME280_humidity;BME280_pressure;Samples;Min_cycle;Max_cycle;Signal;HPM_P1;HPM_P2
2021/10/23 06:00:35;;;;;;;12.88;5.00;;;6.40;99.90;;;;;;6135581;22;19982;-81
2021/10/23 06:03:03;;;;;;;;;;;6.40;99.90;;;;;;6242480;23;20016;-81
2021/10/23 06:05:31;;;;;;;15.38;5.38;;;6.40;99.90;;;;;;6240936;23;19915;-81
2021/10/23 06:07:59;;;;;;;10.25;4.78;;;6.40;99.90;;;;;;6242492;23;20024;-81
2021/10/23 06:10:25;;;;;;;13.63;4.80;;;6.40;99.90;;;;;;6241086;23;20016;-81
2021/10/23 06:12:52;;;;;;;15.93;6.13;;;6.50;99.90;;;;;;6240372;23;20078;-82
2021/10/23 06:15:19;;;;;;;11.32;5.40;;;6.50;99.90;;;;;;6241166;23;20020;-81
2021/10/23 06:17:46;;;;;;;11.30;4.53;;;6.50;99.90;;;;;;6242709;23;20016;-82
2021/10/23 06:20:13;;;;;;;14.88;5.18;;;6.60;99.90;;;;;;6217247;23;20043;-82
2021/10/23 06:22:53;;;;;;;13.63;5.32;;;6.70;99.90;;;;;;6244540;23;20046;-81
2021/10/23 06:25:21;;;;;;;13.70;5.10;;;6.70;99.90;;;;;;6217212;23;20043;-81
2021/10/23 06:27:48;;;;;;;11.68;5.00;;;6.80;99.90;;;;;;6244898;23;20020;-81
2021/10/23 06:30:16;;;;;;;10.35;5.10;;;6.80;99.90;;;;;;6217406;23;20061;-81
2021/10/23 06:32:55;;;;;;;7.63;3.80;;;6.80;99.90;;;;;;6217624;23;20020;-80
2021/10/23 06:35:22;;;;;;;8.88;4.43;;;6.90;99.90;;;;;;6243915;23;20020;-81
2021/10/23 06:37:50;;;;;;;20.88;14.90;;;6.90;99.90;;;;;;6243273;23;20485;-81
2021/10/23 06:40:17;;;;;;;20.02;9.35;;;7.00;99.90;;;;;;6243941;23;20362;-82
2021/10/23 06:42:44;;;;;;;19.35;5.78;;;7.00;99.90;;;;;;6217736;23;20474;-81
2021/10/23 06:45:13;;;;;;;14.15;5.63;;;7.10;99.90;;;;;;6243088;23;20050;-83
2021/10/23 06:47:40;;;;;;;7.85;4.22;;;7.10;99.90;;;;;;6243580;23;20354;-82
2021/10/23 06:50:09;;;;;;;9.85;5.32;;;7.10;99.90;;;;;;6244158;23;20024;-81
2021/10/23 06:52:36;;;;;;;8.70;4.30;;;7.20;99.90;;;;;;6243978;23;20020;-82
2021/10/23 06:55:05;;;;;;;12.55;5.70;;;7.20;99.90;;;;;;6243387;23;20024;-82
2021/10/23 06:57:31;;;;;;;;;;;7.30;99.90;;;;;;6244464;23;20556;-82
2021/10/23 06:59:58;;;;;;;12.27;5.60;;;7.30;99.90;;;;;;6244098;23;19916;-82
2021/10/23 07:02:25;;;;;;;9.77;4.40;;;7.30;99.90;;;;;;6224347;23;20020;-83
2021/10/23 07:04:53;;;;;;;11.82;4.35;;;7.30;99.90;;;;;;6236995;23;20095;-82
2021/10/23 07:07:19;;;;;;;13.60;5.25;;;7.40;99.90;;;;;;6236423;23;20058;-82
2021/10/23 07:09:46;;;;;;;9.98;5.05;;;7.40;99.90;;;;;;6236868;23;20020;-81
2021/10/23 07:12:13;;;;;;;12.40;4.25;;;7.50;99.90;;;;;;6237352;23;20024;-81
2021/10/23 07:14:40;;;;;;;7.00;3.40;;;7.50;99.90;;;;;;6237430;23;20074;-81
2021/10/23 07:17:07;;;;;;;11.30;4.25;;;7.50;99.90;;;;;;6236373;23;20020;-81
2021/10/23 07:19:34;;;;;;;7.35;3.80;;;7.60;99.90;;;;;;6237684;23;20020;-81
2021/10/23 07:22:01;;;;;;;9.05;3.78;;;7.60;99.90;;;;;;6237481;23;20020;-82
2021/10/23 07:24:28;;;;;;;6.18;3.40;;;7.60;99.90;;;;;;6236805;23;20066;-82
2021/10/23 07:26:54;;;;;;;10.65;4.50;;;7.70;99.90;;;;;;6211738;23;20024;-81
2021/10/23 07:29:21;;;;;;;9.27;4.10;;;7.70;99.90;;;;;;6237319;23;20882;-82
2021/10/23 07:31:48;;;;;;;6.75;3.42;;;7.70;99.90;;;;;;6236912;23;20028;-80
2021/10/23 07:34:15;;;;;;;11.93;4.55;;;7.80;99.90;;;;;;6236071;23;20024;-80
2021/10/23 07:36:42;;;;;;;10.10;3.40;;;7.90;99.90;;;;;;6236566;23;20054;-80
2021/10/23 07:39:09;;;;;;;5.40;3.22;;;7.90;99.90;;;;;;6235762;23;20024;-80
2021/10/23 07:41:38;;;;;;;9.55;3.80;;;7.90;99.90;;;;;;6236245;23;20049;-81
2021/10/23 07:44:07;;;;;;;8.88;3.58;;;8.00;99.90;;;;;;6236579;23;20013;-80
2021/10/23 07:46:34;;;;;;;;;;;8.00;99.90;;;;;;6237302;23;20462;-79
2021/10/23 07:49:02;;;;;;;12.10;5.07;;;8.10;99.90;;;;;;6238026;23;19919;-80
2021/10/23 07:51:31;;;;;;;15.98;4.05;;;8.10;99.90;;;;;;6237209;23;20020;-80
2021/10/23 07:53:58;;;;;;;13.25;4.45;;;8.10;99.90;;;;;;6238660;23;20020;-80
2021/10/23 07:56:25;;;;;;;11.65;4.70;;;8.20;99.90;;;;;;6238646;23;20069;-80
2021/10/23 07:58:52;;;;;;;8.43;4.10;;;8.20;99.90;;;;;;6237115;23;20031;-80
2021/10/23 08:01:19;;;;;;;10.55;4.75;;;8.20;99.90;;;;;;6237246;23;20032;-80
2021/10/23 08:03:46;;;;;;;7.93;3.95;;;8.30;99.90;;;;;;6237157;23;20055;-80
2021/10/23 08:06:14;;;;;;;11.27;5.15;;;8.30;99.90;;;;;;6236844;23;20035;-80
2021/10/23 08:08:41;;;;;;;11.37;4.10;;;8.40;99.90;;;;;;6236619;23;20702;-80
2021/10/23 08:11:08;;;;;;;9.65;4.40;;;8.40;99.90;;;;;;6235821;23;20071;-80
2021/10/23 08:13:35;;;;;;;12.07;4.65;;;8.50;99.90;;;;;;6236499;23;20012;-81
2021/10/23 08:16:03;;;;;;;15.55;5.60;;;8.50;99.90;;;;;;6236895;23;20102;-80
2021/10/23 08:18:30;;;;;;;13.73;5.55;;;8.60;99.90;;;;;;6236405;23;20074;-81
2021/10/23 08:20:57;;;;;;;9.70;4.80;;;8.60;99.90;;;;;;6237494;23;20020;-81
2021/10/23 08:23:24;;;;;;;14.07;5.45;;;8.70;99.90;;;;;;6236319;23;20461;-81
2021/10/23 08:25:52;;;;;;;10.07;4.00;;;8.70;99.90;;;;;;6236221;23;20020;-80
2021/10/23 08:28:21;;;;;;;11.07;4.47;;;8.80;99.90;;;;;;6236592;23;20028;-82
2021/10/23 08:30:48;;;;;;;6.40;3.60;;;8.80;99.90;;;;;;6237458;23;20024;-80
2021/10/23 08:33:15;;;;;;;11.43;5.07;;;8.80;99.90;;;;;;6236781;23;20553;-81
2021/10/23 08:35:42;;;;;;;14.05;4.60;;;8.90;99.90;;;;;;6236145;23;20055;-80
2021/10/23 08:38:09;;;;;;;11.98;6.45;;;8.90;99.90;;;;;;6235962;23;20485;-82
2021/10/23 08:40:39;;;;;;;11.73;5.60;;;9.00;99.90;;;;;;6234134;23;20024;-81
2021/10/23 08:43:10;;;;;;;11.05;5.25;;;9.00;99.90;;;;;;6232878;23;20027;-83
2021/10/23 08:45:40;;;;;;;11.55;5.05;;;9.10;99.90;;;;;;6233913;23;20497;-81
2021/10/23 08:48:09;;;;;;;16.85;5.00;;;9.20;99.90;;;;;;6234370;23;20024;-79
2021/10/23 08:50:36;;;;;;;6.95;4.07;;;9.20;99.90;;;;;;6240827;23;20024;-81
2021/10/23 08:53:04;;;;;;;19.45;5.22;;;9.30;99.90;;;;;;6241319;23;20016;-80
2021/10/23 08:55:31;;;;;;;11.50;5.32;;;9.40;99.90;;;;;;6239878;23;20474;-82
2021/10/23 08:57:58;;;;;;;7.47;4.90;;;9.40;99.90;;;;;;6241629;23;20409;-80
2021/10/23 09:00:26;;;;;;;15.90;5.85;;;9.50;99.90;;;;;;6240079;23;20020;-81
2021/10/23 09:02:53;;;;;;;14.93;5.70;;;9.50;99.90;;;;;;6239994;23;20744;-82
2021/10/23 09:05:21;;;;;;;10.45;4.07;;;9.50;99.90;;;;;;6238337;23;20028;-81
2021/10/23 09:07:51;;;;;;;13.93;4.00;;;9.60;99.90;;;;;;6241236;23;20024;-82
2021/10/23 09:10:28;;;;;;;10.15;5.43;;;9.60;99.90;;;;;;6214568;23;20074;-81
2021/10/23 09:13:03;;;;;;;10.00;4.15;;;9.70;99.90;;;;;;6240663;23;20019;-80
2021/10/23 09:15:41;;;;;;;14.95;5.55;;;9.80;99.90;;;;;;6240224;23;20016;-82
2021/10/23 09:18:09;;;;;;;9.27;4.22;;;9.90;99.90;;;;;;6242073;23;20020;-82
2021/10/23 09:20:38;;;;;;;11.38;4.18;;;9.90;99.90;;;;;;6241602;23;20019;-82
2021/10/23 09:23:19;;;;;;;17.75;5.28;;;10.00;99.90;;;;;;6240638;23;20086;-80
2021/10/23 09:25:46;;;;;;;11.70;5.53;;;10.00;99.90;;;;;;6241418;23;20020;-85
2021/10/23 09:28:16;;;;;;;8.40;4.10;;;10.10;99.90;;;;;;6214438;23;20090;-82
2021/10/23 09:30:44;;;;;;;8.55;4.47;;;10.20;99.90;;;;;;6241668;23;20070;-85
2021/10/23 09:33:19;;;;;;;8.18;4.20;;;10.20;99.90;;;;;;6241927;23;20028;-87
2021/10/23 09:35:47;;;;;;;9.80;3.95;;;10.30;99.90;;;;;;6215859;23;20024;-84
2021/10/23 09:38:17;;;;;;;8.30;4.10;;;10.40;99.90;;;;;;6224252;23;20020;-85
2021/10/23 09:40:46;;;;;;;9.63;3.97;;;10.40;99.90;;;;;;6241123;23;20638;-82
2021/10/23 09:43:20;;;;;;;8.60;4.13;;;10.50;99.90;;;;;;6243482;23;20366;-88
2021/10/23 09:45:56;;;;;;;6.60;3.65;;;10.50;99.90;;;;;;6217029;23;20066;-87
2021/10/23 09:48:42;;;;;;;11.48;4.45;;;10.60;99.90;;;;;;6243371;23;20044;-89
2021/10/23 09:51:33;;;;;;;9.48;4.10;;;10.70;99.90;;;;;;6226055;23;20020;-87
2021/10/23 09:54:02;;;;;;;9.25;4.55;;;10.70;99.90;;;;;;6245118;23;20024;-88
2021/10/23 09:56:32;;;;;;;11.75;4.60;;;10.70;99.90;;;;;;6244663;23;20082;-86
2021/10/23 09:59:09;;;;;;;9.68;4.53;;;10.80;99.90;;;;;;6243293;23;20016;-86
2021/10/23 10:01:42;;;;;;;9.95;5.28;;;10.80;99.90;;;;;;6239881;23;20099;-83
2021/10/23 10:04:14;;;;;;;12.73;5.05;;;10.80;99.90;;;;;;6241341;23;20092;-84
2021/10/23 10:06:47;;;;;;;9.00;5.15;;;10.90;99.90;;;;;;6241105;23;20020;-83
2021/10/23 10:09:21;;;;;;;9.32;5.57;;;10.90;99.90;;;;;;6242212;23;20012;-85
2021/10/23 10:11:54;;;;;;;10.75;4.15;;;10.90;99.90;;;;;;6218601;23;20479;-88
2021/10/23 10:14:35;;;;;;;9.15;4.68;;;11.00;99.90;;;;;;6217904;23;20066;-83
2021/10/23 10:17:03;;;;;;;9.50;4.70;;;11.00;99.90;;;;;;6242483;23;20092;-84
2021/10/23 10:19:30;;;;;;;11.18;5.10;;;11.00;99.90;;;;;;6240512;23;20017;-86
2021/10/23 10:22:06;;;;;;;9.27;4.80;;;11.10;99.90;;;;;;6242033;23;20482;-83
2021/10/23 10:24:35;;;;;;;11.05;5.55;;;11.10;99.90;;;;;;6241974;23;20024;-82
2021/10/23 10:27:07;;;;;;;11.95;5.50;;;11.10;99.90;;;;;;6215629;23;20020;-84
2021/10/23 10:29:58;;;;;;;9.75;5.78;;;11.20;99.90;;;;;;6215079;23;20020;-83
2021/10/23 10:32:39;;;;;;;11.55;5.38;;;11.20;99.90;;;;;;6241074;23;20020;-83
2021/10/23 10:35:19;;;;;;;10.82;5.15;;;11.20;99.90;;;;;;6242683;23;20069;-83
2021/10/23 10:38:54;;;;;;;9.95;6.05;;;11.30;99.90;;;;;;6242551;23;20024;-82
2021/10/23 10:43:18;;;;;;;11.68;5.32;;;11.30;99.90;;;;;;6240875;23;20020;-82
2021/10/23 10:45:48;;;;;;;10.90;5.25;;;11.30;99.90;;;;;;6241940;23;20103;-81
2021/10/23 10:48:20;;;;;;;10.90;5.40;;;11.40;99.90;;;;;;6239870;23;20020;-81
2021/10/23 10:51:14;;;;;;;10.88;5.28;;;11.40;99.90;;;;;;6240371;23;20082;-82
2021/10/23 10:54:02;;;;;;;11.32;5.32;;;11.40;99.90;;;;;;6227304;23;20490;-82
2021/10/23 10:56:44;;;;;;;8.50;5.07;;;11.40;99.90;;;;;;6241140;23;20020;-82
2021/10/23 10:59:11;;;;;;;9.82;5.20;;;11.40;99.90;;;;;;6240441;23;20028;-81
2021/10/23 11:01:38;;;;;;;11.93;5.13;;;11.40;99.90;;;;;;6238954;23;20032;-83
2021/10/23 11:04:08;;;;;;;10.85;5.95;;;11.40;99.90;;;;;;6238752;23;20071;-82
2021/10/23 11:06:35;;;;;;;12.35;5.82;;;11.50;99.90;;;;;;6242023;23;20012;-81
2021/10/23 11:09:08;;;;;;;13.15;6.43;;;11.50;99.90;;;;;;6240732;23;20059;-81
2021/10/23 11:11:44;;;;;;;24.30;5.93;;;11.50;99.90;;;;;;6241404;23;20012;-82
2021/10/23 11:14:24;;;;;;;12.10;5.15;;;11.60;99.90;;;;;;6240632;23;20024;-82
2021/10/23 11:17:04;;;;;;;9.27;5.35;;;11.70;99.90;;;;;;6243262;23;20042;-82
2021/10/23 11:19:33;;;;;;;11.30;5.03;;;11.80;99.90;;;;;;6242297;23;20027;-82
2021/10/23 11:22:32;;;;;;;8.75;4.30;;;11.90;99.90;;;;;;6242537;23;20023;-82
2021/10/23 11:25:12;;;;;;;8.30;4.70;;;12.00;99.90;;;;;;6243087;23;20016;-84
2021/10/23 11:27:46;;;;;;;9.52;5.00;;;12.10;99.90;;;;;;6244966;23;20020;-83
2021/10/23 11:30:33;;;;;;;7.40;4.65;;;12.10;99.90;;;;;;6216696;23;20028;-86
2021/10/23 11:33:06;;;;;;;7.93;5.23;;;12.20;99.90;;;;;;6240035;23;20062;-84
2021/10/23 11:35:46;;;;;;;10.63;5.25;;;12.20;99.90;;;;;;6211403;23;20435;-83
2021/10/23 11:38:20;;;;;;;9.57;5.20;;;12.30;99.90;;;;;;6236952;23;20028;-84
2021/10/23 11:40:56;;;;;;;10.52;5.57;;;12.40;99.90;;;;;;6238766;23;20091;-84
2021/10/23 11:43:23;;;;;;;9.73;5.15;;;12.50;99.90;;;;;;6211568;23;20024;-84
2021/10/23 11:45:51;;;;;;;9.27;5.13;;;12.50;99.90;;;;;;6240297;23;20401;-84
2021/10/23 11:48:18;;;;;;;8.98;5.00;;;12.60;99.90;;;;;;6239616;23;20074;-84
2021/10/23 11:50:50;;;;;;;12.18;5.22;;;12.70;99.90;;;;;;6238762;23;20020;-83
2021/10/23 11:53:30;;;;;;;10.98;4.47;;;12.70;99.90;;;;;;6238091;23;20025;-84
2021/10/23 11:56:07;;;;;;;9.95;5.38;;;12.80;99.90;;;;;;6240105;23;20089;-84
2021/10/23 11:58:36;;;;;;;9.43;4.63;;;12.80;99.90;;;;;;6239503;23;20020;-83
2021/10/23 12:01:09;;;;;;;6.22;3.50;;;12.90;99.90;;;;;;6239637;23;20019;-82
2021/10/23 12:03:41;;;;;;;8.77;3.42;;;12.90;99.90;;;;;;6240468;23;20019;-82
2021/10/23 12:06:18;;;;;;;8.32;2.47;;;13.00;99.90;;;;;;6241448;23;20041;-83
2021/10/23 12:08:49;;;;;;;4.78;1.70;;;13.00;99.90;;;;;;6242116;23;20022;-82
2021/10/23 12:11:25;;;;;;;6.90;1.67;;;13.00;99.90;;;;;;6214990;23;20020;-83
2021/10/23 12:13:56;;;;;;;4.55;1.48;;;13.00;99.90;;;;;;6242528;23;20020;-81
2021/10/23 12:16:42;;;;;;;4.78;1.30;;;13.10;99.90;;;;;;6241378;23;20024;-83
2021/10/23 12:19:10;;;;;;;4.50;1.30;;;13.10;99.90;;;;;;6213654;23;20036;-84
2021/10/23 12:21:39;;;;;;;5.37;1.20;;;13.10;99.90;;;;;;6241524;23;20016;-82
2021/10/23 12:24:20;;;;;;;4.03;1.17;;;13.10;99.90;;;;;;6241637;23;20023;-82
2021/10/23 12:27:05;;;;;;;4.78;1.70;;;13.20;99.90;;;;;;6242015;23;20070;-82
2021/10/23 12:29:44;;;;;;;5.10;1.48;;;13.20;99.90;;;;;;6214941;23;20016;-82
2021/10/23 12:32:12;;;;;;;;;;;13.30;99.90;;;;;;6241857;23;20032;-82
2021/10/23 12:34:51;;;;;;;3.47;1.35;;;13.30;99.90;;;;;;6242121;23;20342;-82
2021/10/23 12:37:27;;;;;;;5.85;1.75;;;13.40;99.90;;;;;;6241400;23;20023;-84
2021/10/23 12:40:19;;;;;;;5.57;2.38;;;13.40;99.90;;;;;;6242046;23;20569;-81
2021/10/23 12:42:48;;;;;;;7.65;2.97;;;13.50;99.90;;;;;;6241647;23;20024;-84
2021/10/23 12:45:18;;;;;;;5.90;2.67;;;13.50;99.90;;;;;;6240880;23;20410;-83
2021/10/23 12:47:46;;;;;;;9.35;2.63;;;13.60;99.90;;;;;;6241946;23;20046;-82
2021/10/23 12:50:13;;;;;;;5.30;2.22;;;13.60;99.90;;;;;;6241440;23;20476;-82
2021/10/23 12:52:42;;;;;;;6.95;2.28;;;13.70;99.90;;;;;;6215534;23;20328;-83
2021/10/23 12:55:10;;;;;;;;;;;13.80;99.90;;;;;;6241573;23;20024;-83
2021/10/23 12:57:37;;;;;;;4.22;1.40;;;13.80;99.90;;;;;;6241629;23;19970;-82
2021/10/23 13:00:06;;;;;;;5.72;2.90;;;13.90;99.90;;;;;;6241534;23;20020;-83
2021/10/23 13:02:33;;;;;;;;;;;13.90;99.90;;;;;;6241406;23;20054;-83
2021/10/23 13:05:00;;;;;;;10.45;4.45;;;13.90;99.90;;;;;;6241215;23;19930;-83
2021/10/23 13:07:27;;;;;;;7.88;2.15;;;14.00;99.90;;;;;;6240484;23;20016;-84
2021/10/23 13:09:54;;;;;;;5.28;1.40;;;14.00;99.90;;;;;;6241913;23;20074;-82
2021/10/23 13:12:21;;;;;;;2.95;1.63;;;14.10;99.90;;;;;;6240961;23;20093;-83
2021/10/23 13:14:48;;;;;;;2.88;1.40;;;14.20;99.90;;;;;;6241483;23;20024;-82
2021/10/23 13:17:15;;;;;;;3.17;1.23;;;14.30;99.90;;;;;;6240435;23;20024;-82
2021/10/23 13:19:42;;;;;;;3.42;1.13;;;14.30;99.90;;;;;;6241554;23;20028;-82
2021/10/23 13:22:09;;;;;;;5.70;1.17;;;14.40;99.90;;;;;;6240668;23;20074;-82
2021/10/23 13:24:36;;;;;;;4.18;1.60;;;14.40;99.90;;;;;;6241845;23;20067;-82
2021/10/23 13:27:03;;;;;;;2.30;1.05;;;14.50;99.90;;;;;;6240946;23;20492;-82
2021/10/23 13:29:30;;;;;;;5.25;1.17;;;14.50;99.90;;;;;;6240333;23;20066;-82
2021/10/23 13:31:57;;;;;;;4.97;1.10;;;14.60;99.90;;;;;;6241187;23;20016;-81
2021/10/23 13:34:24;;;;;;;4.03;1.15;;;14.60;99.90;;;;;;6240862;23;20028;-82
2021/10/23 13:36:50;;;;;;;4.65;1.30;;;14.60;99.90;;;;;;6240422;23;20062;-82
2021/10/23 13:39:17;;;;;;;5.55;1.50;;;14.70;99.90;;;;;;6240219;23;20024;-82
2021/10/23 13:41:45;;;;;;;5.93;1.70;;;14.70;99.90;;;;;;6241309;23;20074;-83
2021/10/23 13:44:12;;;;;;;3.85;1.52;;;14.80;99.90;;;;;;6240626;23;20085;-82
2021/10/23 13:46:39;;;;;;;5.47;1.27;;;14.80;99.90;;;;;;6241472;23;20023;-82
2021/10/23 13:49:08;;;;;;;2.63;1.00;;;14.80;99.90;;;;;;6241373;23;20439;-82
2021/10/23 13:51:34;;;;;;;;;;;14.80;99.90;;;;;;6241681;23;20023;-83
2021/10/23 13:54:02;;;;;;;3.10;1.17;;;14.80;99.90;;;;;;6241329;23;19916;-82
2021/10/23 13:56:29;;;;;;;4.95;1.00;;;14.80;99.90;;;;;;6241463;23;20462;-82
2021/10/23 13:58:56;;;;;;;3.78;1.38;;;14.80;99.90;;;;;;6240862;23;20047;-82
2021/10/23 14:01:23;;;;;;;5.07;1.25;;;14.80;99.90;;;;;;6239839;22;20055;-82
2021/10/23 14:03:51;;;;;;;3.42;1.17;;;14.80;99.90;;;;;;6241621;23;20012;-83
2021/10/23 14:06:18;;;;;;;4.45;1.42;;;14.80;99.90;;;;;;6240858;23;20086;-82
2021/10/23 14:08:46;;;;;;;3.47;0.80;;;14.80;99.90;;;;;;6240902;23;20020;-82
2021/10/23 14:11:12;;;;;;;6.05;1.55;;;14.80;99.90;;;;;;6240036;23;20024;-82
2021/10/23 14:13:39;;;;;;;4.32;1.63;;;14.80;99.90;;;;;;6241504;23;20050;-82
2021/10/23 14:16:06;;;;;;;3.65;1.33;;;14.80;99.90;;;;;;6240388;23;20020;-81
2021/10/23 14:18:33;;;;;;;3.90;1.73;;;14.80;99.90;;;;;;6241024;23;20127;-83
2021/10/23 14:21:03;;;;;;;6.55;1.60;;;14.90;99.90;;;;;;6240860;23;20486;-82
2021/10/23 14:23:30;;;;;;;3.53;1.38;;;14.80;99.90;;;;;;6241021;23;20020;-82
2021/10/23 14:25:59;;;;;;;7.32;2.15;;;14.80;99.90;;;;;;6241047;23;20078;-83
2021/10/23 14:28:39;;;;;;;9.55;1.70;;;14.80;99.90;;;;;;6240825;23;20047;-82
2021/10/23 14:31:09;;;;;;;3.58;1.30;;;14.70;99.90;;;;;;6240217;23;20428;-81
2021/10/23 14:33:37;;;;;;;5.60;3.13;;;14.80;99.90;;;;;;6241308;23;20012;-82
2021/10/23 14:36:05;;;;;;;4.10;1.67;;;14.70;99.90;;;;;;6240299;23;20470;-82
2021/10/23 14:38:33;;;;;;;5.63;1.95;;;14.70;99.90;;;;;;6241259;23;20413;-82
2021/10/23 14:41:01;;;;;;;8.32;2.80;;;14.70;99.90;;;;;;6215901;23;20466;-82
2021/10/23 14:43:28;;;;;;;5.55;2.20;;;14.70;99.90;;;;;;6215757;23;20090;-82
2021/10/23 14:45:55;;;;;;;6.15;3.13;;;14.70;99.90;;;;;;6242414;23;20078;-82
2021/10/23 14:48:22;;;;;;;6.53;2.75;;;14.70;99.90;;;;;;6242374;23;20184;-83
2021/10/23 14:50:49;;;;;;;9.68;5.05;;;14.70;99.90;;;;;;6243070;23;20082;-81
2021/10/23 14:53:17;;;;;;;18.25;10.50;;;14.70;99.90;;;;;;6241773;23;20029;-83
2021/10/23 14:55:44;;;;;;;13.13;6.07;;;14.70;99.90;;;;;;6243496;23;20070;-82
2021/10/23 14:58:11;;;;;;;6.88;2.50;;;14.70;99.90;;;;;;6242348;23;20016;-81
2021/10/23 15:00:38;;;;;;;6.43;1.90;;;14.70;99.90;;;;;;6242293;22;20016;-82
2021/10/23 15:03:05;;;;;;;4.72;2.10;;;14.70;99.90;;;;;;6242656;23;20042;-82
2021/10/23 15:05:33;;;;;;;6.90;2.70;;;14.60;99.90;;;;;;6242711;23;20514;-83
2021/10/23 15:08:01;;;;;;;7.75;3.72;;;14.60;99.90;;;;;;6242785;23;20019;-83
2021/10/23 15:10:29;;;;;;;6.68;2.95;;;14.60;99.90;;;;;;6242072;23;20343;-83
2021/10/23 15:12:56;;;;;;;4.40;2.00;;;14.50;99.90;;;;;;6242389;23;20012;-82
2021/10/23 15:15:24;;;;;;;6.45;2.25;;;14.50;99.90;;;;;;6215344;23;20095;-82
2021/10/23 15:17:52;;;;;;;6.00;2.10;;;14.50;99.90;;;;;;6243002;23;20024;-82
2021/10/23 15:20:20;;;;;;;5.78;1.60;;;14.50;99.90;;;;;;6242995;23;20066;-81
2021/10/23 15:22:50;;;;;;;5.70;1.35;;;14.40;99.90;;;;;;6242754;23;20094;-82
2021/10/23 15:25:18;;;;;;;4.10;2.08;;;14.40;99.90;;;;;;6241993;23;20028;-83
2021/10/23 15:27:46;;;;;;;3.50;1.60;;;14.30;99.90;;;;;;6243066;23;20020;-84
2021/10/23 15:30:14;;;;;;;4.90;1.60;;;14.30;99.90;;;;;;6241883;23;20028;-83
2021/10/23 15:32:52;;;;;;;6.82;1.88;;;14.30;99.90;;;;;;6242719;23;20529;-83
2021/10/23 15:35:33;;;;;;;6.03;1.63;;;14.20;99.90;;;;;;6241835;23;20070;-84
2021/10/23 15:38:00;;;;;;;7.20;1.67;;;14.20;99.90;;;;;;6242788;23;20470;-83
2021/10/23 15:41:05;;;;;;;3.47;1.65;;;14.10;99.90;;;;;;6242169;23;20012;-82
2021/10/23 15:43:21;;;;;;;11.40;6.15;;;14.10;99.90;;;;;;6239818;23;20039;-83
2021/10/23 15:45:49;;;;;;;9.50;3.13;;;14.10;99.90;;;;;;6243114;23;20075;-83
2021/10/23 15:48:20;;;;;;;11.05;6.85;;;14.00;99.90;;;;;;6241301;23;20020;-82
2021/10/23 15:50:47;;;;;;;6.88;3.10;;;14.00;99.90;;;;;;6241904;23;20016;-83
2021/10/23 15:53:15;;;;;;;5.30;2.00;;;14.00;99.90;;;;;;6241403;23;20081;-83
2021/10/23 15:55:42;;;;;;;4.88;1.65;;;13.90;99.90;;;;;;6242212;23;20082;-83
2021/10/23 15:58:09;;;;;;;5.97;2.35;;;13.80;99.90;;;;;;6242101;23;20028;-82
2021/10/23 16:00:40;;;;;;;7.20;3.10;;;13.80;99.90;;;;;;6215629;23;20401;-82
2021/10/23 16:03:08;;;;;;;5.32;2.50;;;13.80;99.90;;;;;;6242011;23;20043;-82
2021/10/23 16:05:35;;;;;;;4.78;2.28;;;13.70;99.90;;;;;;6240346;23;20020;-83
2021/10/23 16:08:07;;;;;;;7.57;2.55;;;13.70;99.90;;;;;;6242365;23;20016;-82
2021/10/23 16:10:36;;;;;;;6.63;2.88;;;13.70;99.90;;;;;;6242030;23;20565;-84
2021/10/23 16:13:05;;;;;;;5.97;2.28;;;13.70;99.90;;;;;;6241961;23;20061;-84
2021/10/23 16:15:33;;;;;;;5.35;1.90;;;13.70;99.90;;;;;;6215714;23;20020;-84
2021/10/23 16:18:00;;;;;;;4.95;1.90;;;13.70;99.90;;;;;;6215509;23;20031;-84
2021/10/23 16:20:28;;;;;;;5.60;2.30;;;13.60;99.90;;;;;;6240069;23;20019;-81
2021/10/23 16:22:57;;;;;;;6.35;2.85;;;13.60;99.90;;;;;;6241652;23;20016;-82
2021/10/23 16:25:24;;;;;;;10.70;4.10;;;13.60;99.90;;;;;;6241223;23;20557;-82
2021/10/23 16:27:51;;;;;;;8.20;3.10;;;13.50;99.90;;;;;;6242527;23;20393;-81
2021/10/23 16:30:18;;;;;;;5.65;2.60;;;13.50;99.90;;;;;;6241169;23;20020;-81
2021/10/23 16:32:46;;;;;;;4.88;2.40;;;13.50;99.90;;;;;;6241796;23;20024;-82
2021/10/23 16:35:15;;;;;;;7.68;2.55;;;13.50;99.90;;;;;;6240930;23;20024;-82
2021/10/23 16:37:42;;;;;;;5.45;2.42;;;13.40;99.90;;;;;;6242049;23;20057;-82
2021/10/23 16:40:10;;;;;;;6.55;2.30;;;13.40;99.90;;;;;;6215075;23;20028;-82
2021/10/23 16:42:36;;;;;;;7.28;2.58;;;13.40;99.90;;;;;;6241076;23;20070;-84
2021/10/23 16:45:04;;;;;;;7.65;2.40;;;13.30;99.90;;;;;;6241597;23;20482;-84
2021/10/23 16:47:32;;;;;;;4.77;1.77;;;13.30;99.90;;;;;;6214411;23;20494;-83
2021/10/23 16:49:59;;;;;;;6.23;2.53;;;13.20;99.90;;;;;;6241870;23;20012;-84
2021/10/23 16:52:26;;;;;;;5.22;2.67;;;13.20;99.90;;;;;;6241659;23;20036;-84
2021/10/23 16:54:53;;;;;;;7.65;2.97;;;13.20;99.90;;;;;;6242066;23;20024;-85
2021/10/23 16:57:20;;;;;;;7.38;3.78;;;13.10;99.90;;;;;;6240948;23;20351;-81
2021/10/23 16:59:47;;;;;;;7.45;4.43;;;13.10;99.90;;;;;;6241497;23;20498;-84
2021/10/23 17:02:14;;;;;;;8.73;3.22;;;13.00;99.90;;;;;;6240199;23;20430;-85
2021/10/23 17:04:41;;;;;;;6.85;2.50;;;13.00;99.90;;;;;;6242099;23;20016;-82
2021/10/23 17:07:09;;;;;;;8.20;2.40;;;13.00;99.90;;;;;;6240786;23;20050;-83
2021/10/23 17:09:36;;;;;;;6.30;2.92;;;12.90;99.90;;;;;;6241548;23;20012;-83
2021/10/23 17:12:03;;;;;;;7.55;3.08;;;12.90;99.90;;;;;;6241712;23;20016;-83
2021/10/23 17:14:30;;;;;;;8.00;3.85;;;12.90;99.90;;;;;;6215023;23;20020;-84
2021/10/23 17:16:57;;;;;;;7.75;3.40;;;12.90;99.90;;;;;;6241890;23;20016;-83
2021/10/23 17:19:24;;;;;;;6.68;3.63;;;12.90;99.90;;;;;;6240826;23;20031;-83
2021/10/23 17:21:51;;;;;;;7.47;3.85;;;12.80;99.90;;;;;;6241582;23;20024;-83
2021/10/23 17:24:18;;;;;;;8.15;3.67;;;12.80;99.90;;;;;;6240471;23;20074;-83
2021/10/23 17:26:44;;;;;;;8.55;2.80;;;12.70;99.90;;;;;;6242184;23;20020;-83
2021/10/23 17:29:11;;;;;;;6.72;3.30;;;12.70;99.90;;;;;;6240878;23;20024;-83
2021/10/23 17:31:38;;;;;;;8.32;3.50;;;12.70;99.90;;;;;;6241169;23;20024;-83
2021/10/23 17:34:10;;;;;;;6.63;2.95;;;12.70;99.90;;;;;;6240969;23;20086;-83
2021/10/23 17:36:38;;;;;;;6.47;2.97;;;12.70;99.90;;;;;;6241578;23;20024;-83
2021/10/23 17:39:05;;;;;;;8.10;2.95;;;12.60;99.90;;;;;;6240616;23;20020;-82
2021/10/23 17:41:35;;;;;;;6.00;3.72;;;12.60;99.90;;;;;;6215662;23;20303;-84
2021/10/23 17:44:02;;;;;;;5.38;3.08;;;12.60;99.90;;;;;;6241751;23;20470;-83
2021/10/23 17:46:29;;;;;;;7.50;4.57;;;12.60;99.90;;;;;;6241194;23;20171;-83
2021/10/23 17:48:56;;;;;;;9.73;4.40;;;12.60;99.90;;;;;;6241346;23;20023;-82
2021/10/23 17:51:23;;;;;;;9.52;5.28;;;12.50;99.90;;;;;;6240766;23;20019;-84
2021/10/23 17:53:50;;;;;;;11.52;5.15;;;12.50;99.90;;;;;;6241131;23;20122;-83
2021/10/23 17:56:17;;;;;;;6.50;3.95;;;12.50;99.90;;;;;;6241076;23;20625;-83
2021/10/23 17:58:44;;;;;;;5.30;3.05;;;12.40;99.90;;;;;;6241570;23;20074;-83
2021/10/23 18:01:11;;;;;;;6.95;3.50;;;12.40;99.90;;;;;;6239790;23;20024;-83
2021/10/23 18:03:38;;;;;;;5.25;3.97;;;12.40;99.90;;;;;;6241556;23;20398;-83
2021/10/23 18:06:05;;;;;;;6.85;3.10;;;12.40;99.90;;;;;;6240867;23;20024;-82
2021/10/23 18:08:34;;;;;;;6.07;3.58;;;12.40;99.90;;;;;;6241663;23;20024;-84
2021/10/23 18:11:04;;;;;;;8.90;5.57;;;12.40;99.90;;;;;;6240501;23;20016;-83
2021/10/23 18:13:33;;;;;;;7.03;3.60;;;12.30;99.90;;;;;;6241117;23;20016;-83
2021/10/23 18:16:12;;;;;;;5.15;2.90;;;12.30;99.90;;;;;;6243316;23;20505;-81
2021/10/23 18:18:40;;;;;;;4.45;2.53;;;12.30;99.90;;;;;;6243236;23;20358;-83
2021/10/23 18:21:11;;;;;;;4.57;3.00;;;12.30;99.90;;;;;;6243213;23;20524;-82
2021/10/23 18:23:38;;;;;;;6.18;2.63;;;12.20;99.90;;;;;;6242990;23;20020;-85
2021/10/23 18:26:06;;;;;;;6.03;3.05;;;12.20;99.90;;;;;;6242617;23;20066;-82
2021/10/23 18:28:33;;;;;;;6.30;3.58;;;12.20;99.90;;;;;;6243173;23;20532;-83
2021/10/23 18:31:00;;;;;;;5.82;2.83;;;12.20;99.90;;;;;;6243226;23;20447;-83
2021/10/23 18:33:28;;;;;;;6.75;2.42;;;12.20;99.90;;;;;;6242316;23;20024;-83
2021/10/23 18:35:55;;;;;;;7.55;2.13;;;12.20;99.90;;;;;;6216809;23;20117;-84
2021/10/23 18:38:22;;;;;;;6.57;2.72;;;12.20;99.90;;;;;;6215854;23;20405;-83
2021/10/23 18:40:49;;;;;;;5.78;2.85;;;12.20;99.90;;;;;;6243249;23;20091;-83
2021/10/23 18:43:17;;;;;;;7.75;4.03;;;12.20;99.90;;;;;;6242344;23;20433;-83
2021/10/23 18:45:45;;;;;;;6.60;4.28;;;12.10;99.90;;;;;;6243086;23;20478;-83
2021/10/23 18:48:12;;;;;;;8.40;4.63;;;12.10;99.90;;;;;;6216340;23;20024;-83
2021/10/23 18:50:39;;;;;;;7.18;3.30;;;12.10;99.90;;;;;;6216102;23;20066;-83
2021/10/23 18:53:06;;;;;;;6.88;2.90;;;12.10;99.90;;;;;;6242298;23;20028;-83
2021/10/23 18:55:36;;;;;;;5.13;2.70;;;12.10;99.90;;;;;;6243055;23;20285;-83
2021/10/23 18:58:03;;;;;;;6.30;2.28;;;12.10;99.90;;;;;;6243563;23;20024;-83
2021/10/23 19:00:30;;;;;;;5.60;2.00;;;12.10;99.90;;;;;;6242391;23;20082;-82
2021/10/23 19:02:57;;;;;;;5.95;2.03;;;12.10;99.90;;;;;;6242541;23;20055;-83